sensor_id;sensor_type;location;lat;lon;timestamp;temperature;humidity
23137;DHT22;11737;50.558;7.258;2022-10-30T00:01:05;17.10;99.90
23137;DHT22;11737;50.558;7.258;2022-10-30T00:03:33;17.10;99.90
23137;DHT22;11737;50.558;7.258;2022-10-30T00:06:03;17.10;99.90
23137;DHT22;11737;50.558;7.258;2022-10-30T00:08:31;17.10;99.90
23137;DHT22;11737;50.558;7.258;2022-10-30T00:11:09;17.10;99.90
23137;DHT22;11737;50.558;7.258;2022-10-30T00:13:36;17.00;99.90
23137;DHT22;11737;50.558;7.258;2022-10-30T00:16:05;17.00;99.90
23137;DHT22;11737;50.558;7.258;2022-10-30T00:18:38;17.00;99.90
23137;DHT22;11737;50.558;7.258;2022-10-30T00:21:14;17.00;99.90
23137;DHT22;11737;50.558;7.258;2022-10-30T00:23:50;17.00;99.90
23137;DHT22;11737;50.558;7.258;2022-10-30T00:26:19;17.00;99.90
23137;DHT22;11737;50.558;7.258;2022-10-30T00:28:52;16.90;99.90
23137;DHT22;11737;50.558;7.258;2022-10-30T00:31:21;16.80;99.90
23137;DHT22;11737;50.558;7.258;2022-10-30T00:33:50;16.70;99.90
23137;DHT22;11737;50.558;7.258;2022-10-30T00:36:19;16.70;99.90
23137;DHT22;11737;50.558;7.258;2022-10-30T00:38:46;16.60;99.90
23137;DHT22;11737;50.558;7.258;2022-10-30T00:41:16;16.60;99.90
23137;DHT22;11737;50.558;7.258;2022-10-30T00:43:44;16.60;99.90
23137;DHT22;11737;50.558;7.258;2022-10-30T00:46:22;16.60;99.90
23137;DHT22;11737;50.558;7.258;2022-10-30T00:51:36;16.30;99.90
23137;DHT22;11737;50.558;7.258;2022-10-30T00:54:05;16.20;99.90
23137;DHT22;11737;50.558;7.258;2022-10-30T00:56:34;16.10;99.90
23137;DHT22;11737;50.558;7.258;2022-10-30T00:59:05;15.90;99.90
23137;DHT22;11737;50.558;7.258;2022-10-30T01:01:35;15.80;99.90
23137;DHT22;11737;50.558;7.258;2022-10-30T01:04:05;15.70;99.90
23137;DHT22;11737;50.558;7.258;2022-10-30T01:06:35;15.70;99.90
23137;DHT22;11737;50.558;7.258;2022-10-30T01:09:04;15.60;99.90
23137;DHT22;11737;50.558;7.258;2022-10-30T01:11:31;15.50;99.90
23137;DHT22;11737;50.558;7.258;2022-10-30T01:14:02;15.50;99.90
23137;DHT22;11737;50.558;7.258;2022-10-30T01:19:47;15.50;99.90
23137;DHT22;11737;50.558;7.258;2022-10-30T01:28:09;15.20;99.90
23137;DHT22;11737;50.558;7.258;2022-10-30T01:33:56;15.20;99.90
23137;DHT22;11737;50.558;7.258;2022-10-30T01:36:32;15.10;99.90
23137;DHT22;11737;50.558;7.258;2022-10-30T01:41:40;15.10;99.90
23137;DHT22;11737;50.558;7.258;2022-10-30T01:44:13;15.10;99.90
23137;DHT22;11737;50.558;7.258;2022-10-30T01:50:15;15.00;99.90
23137;DHT22;11737;50.558;7.258;2022-10-30T01:52:54;15.00;99.90
23137;DHT22;11737;50.558;7.258;2022-10-30T02:00:32;14.90;99.90
23137;DHT22;11737;50.558;7.258;2022-10-30T02:03:00;14.80;99.90
23137;DHT22;11737;50.558;7.258;2022-10-30T02:05:42;14.80;99.90
23137;DHT22;11737;50.558;7.258;2022-10-30T02:08:05;14.70;99.90
23137;DHT22;11737;50.558;7.258;2022-10-30T02:10:38;14.70;99.90
23137;DHT22;11737;50.558;7.258;2022-10-30T02:13:03;14.70;99.90
23137;DHT22;11737;50.558;7.258;2022-10-30T02:15:31;14.70;99.90
23137;DHT22;11737;50.558;7.258;2022-10-30T02:17:59;14.70;99.90
23137;DHT22;11737;50.558;7.258;2022-10-30T02:20:27;14.70;99.90
23137;DHT22;11737;50.558;7.258;2022-10-30T02:22:54;14.80;99.90
23137;DHT22;11737;50.558;7.258;2022-10-30T02:25:22;14.80;99.90
23137;DHT22;11737;50.558;7.258;2022-10-30T02:27:49;14.80;99.90
23137;DHT22;11737;50.558;7.258;2022-10-30T02:30:17;14.90;99.90
23137;DHT22;11737;50.558;7.258;2022-10-30T02:32:44;15.00;99.90
23137;DHT22;11737;50.558;7.258;2022-10-30T02:35:12;15.00;99.90
23137;DHT22;11737;50.558;7.258;2022-10-30T02:37:40;15.00;99.90
23137;DHT22;11737;50.558;7.258;2022-10-30T02:40:07;15.00;99.90
23137;DHT22;11737;50.558;7.258;2022-10-30T02:42:35;14.90;99.90
23137;DHT22;11737;50.558;7.258;2022-10-30T02:45:03;14.90;99.90
23137;DHT22;11737;50.558;7.258;2022-10-30T02:47:30;14.90;99.90
23137;DHT22;11737;50.558;7.258;2022-10-30T02:49:59;14.90;99.90
23137;DHT22;11737;50.558;7.258;2022-10-30T02:52:26;14.90;99.90
23137;DHT22;11737;50.558;7.258;2022-10-30T02:54:54;14.80;99.90
23137;DHT22;11737;50.558;7.258;2022-10-30T02:57:21;14.80;99.90
23137;DHT22;11737;50.558;7.258;2022-10-30T02:59:49;14.70;99.90
23137;DHT22;11737;50.558;7.258;2022-10-30T03:02:16;14.70;99.90
23137;DHT22;11737;50.558;7.258;2022-10-30T03:04:44;14.70;99.90
23137;DHT22;11737;50.558;7.258;2022-10-30T03:07:12;14.70;99.90
23137;DHT22;11737;50.558;7.258;2022-10-30T03:09:39;14.60;99.90
23137;DHT22;11737;50.558;7.258;2022-10-30T03:12:07;14.60;99.90
23137;DHT22;11737;50.558;7.258;2022-10-30T03:14:34;14.50;99.90
23137;DHT22;11737;50.558;7.258;2022-10-30T03:17:02;14.50;99.90
23137;DHT22;11737;50.558;7.258;2022-10-30T03:19:29;14.50;99.90
23137;DHT22;11737;50.558;7.258;2022-10-30T03:21:57;14.40;99.90
23137;DHT22;11737;50.558;7.258;2022-10-30T03:24:24;14.40;99.90
23137;DHT22;11737;50.558;7.258;2022-10-30T03:26:52;14.40;99.90
23137;DHT22;11737;50.558;7.258;2022-10-30T03:29:19;14.40;99.90
23137;DHT22;11737;50.558;7.258;2022-10-30T03:31:47;14.30;99.90
23137;DHT22;11737;50.558;7.258;2022-10-30T03:34:14;14.30;99.90
23137;DHT22;11737;50.558;7.258;2022-10-30T03:36:42;14.30;99.90
23137;DHT22;11737;50.558;7.258;2022-10-30T03:39:09;14.20;99.90
23137;DHT22;11737;50.558;7.258;2022-10-30T03:41:37;14.20;99.90
23137;DHT22;11737;50.558;7.258;2022-10-30T03:44:04;14.20;99.90
23137;DHT22;11737;50.558;7.258;2022-10-30T03:46:32;14.10;99.90
23137;DHT22;11737;50.558;7.258;2022-10-30T03:48:59;14.10;99.90
23137;DHT22;11737;50.558;7.258;2022-10-30T03:51:27;14.10;99.90
23137;DHT22;11737;50.558;7.258;2022-10-30T03:53:54;14.00;99.90
23137;DHT22;11737;50.558;7.258;2022-10-30T03:56:22;14.00;99.90
23137;DHT22;11737;50.558;7.258;2022-10-30T03:58:49;14.00;99.90
23137;DHT22;11737;50.558;7.258;2022-10-30T04:01:17;13.90;99.90
23137;DHT22;11737;50.558;7.258;2022-10-30T04:03:44;13.90;99.90
23137;DHT22;11737;50.558;7.258;2022-10-30T04:06:12;13.80;99.90
23137;DHT22;11737;50.558;7.258;2022-10-30T04:08:39;13.70;99.90
23137;DHT22;11737;50.558;7.258;2022-10-30T04:11:09;13.80;99.90
23137;DHT22;11737;50.558;7.258;2022-10-30T04:13:39;13.80;99.90
23137;DHT22;11737;50.558;7.258;2022-10-30T04:16:07;13.80;99.90
23137;DHT22;11737;50.558;7.258;2022-10-30T04:18:34;13.80;99.90
23137;DHT22;11737;50.558;7.258;2022-10-30T04:21:02;13.80;99.90
23137;DHT22;11737;50.558;7.258;2022-10-30T04:23:29;13.80;99.90
23137;DHT22;11737;50.558;7.258;2022-10-30T04:25:59;13.80;99.90
23137;DHT22;11737;50.558;7.258;2022-10-30T04:28:27;13.80;99.90
23137;DHT22;11737;50.558;7.258;2022-10-30T04:30:55;13.70;99.90
23137;DHT22;11737;50.558;7.258;2022-10-30T04:33:23;13.70;99.90
23137;DHT22;11737;50.558;7.258;2022-10-30T04:35:50;13.70;99.90
23137;DHT22;11737;50.558;7.258;2022-10-30T04:38:18;13.60;99.90
23137;DHT22;11737;50.558;7.258;2022-10-30T04:40:45;13.60;99.90
23137;DHT22;11737;50.558;7.258;2022-10-30T04:43:13;13.50;99.90
23137;DHT22;11737;50.558;7.258;2022-10-30T04:45:41;13.50;99.90
23137;DHT22;11737;50.558;7.258;2022-10-30T04:48:14;13.40;99.90
23137;DHT22;11737;50.558;7.258;2022-10-30T04:50:42;13.40;99.90
23137;DHT22;11737;50.558;7.258;2022-10-30T04:53:17;13.30;99.90
23137;DHT22;11737;50.558;7.258;2022-10-30T04:55:46;13.30;99.90
23137;DHT22;11737;50.558;7.258;2022-10-30T04:58:14;13.30;99.90
23137;DHT22;11737;50.558;7.258;2022-10-30T05:00:41;13.30;99.90
23137;DHT22;11737;50.558;7.258;2022-10-30T05:03:18;13.10;99.90
23137;DHT22;11737;50.558;7.258;2022-10-30T05:06:01;13.00;99.90
23137;DHT22;11737;50.558;7.258;2022-10-30T05:08:24;12.90;99.90
23137;DHT22;11737;50.558;7.258;2022-10-30T05:10:53;12.80;99.90
23137;DHT22;11737;50.558;7.258;2022-10-30T05:13:20;12.80;99.90
23137;DHT22;11737;50.558;7.258;2022-10-30T05:15:48;12.80;99.90
23137;DHT22;11737;50.558;7.258;2022-10-30T05:18:15;12.80;99.90
23137;DHT22;11737;50.558;7.258;2022-10-30T05:20:45;12.80;99.90
23137;DHT22;11737;50.558;7.258;2022-10-30T05:23:13;12.80;99.90
23137;DHT22;11737;50.558;7.258;2022-10-30T05:25:40;12.80;99.90
23137;DHT22;11737;50.558;7.258;2022-10-30T05:28:08;12.70;99.90
23137;DHT22;11737;50.558;7.258;2022-10-30T05:30:36;12.60;99.90
23137;DHT22;11737;50.558;7.258;2022-10-30T05:33:06;12.50;99.90
23137;DHT22;11737;50.558;7.258;2022-10-30T05:35:35;12.40;99.90
23137;DHT22;11737;50.558;7.258;2022-10-30T05:38:05;12.30;99.90
23137;DHT22;11737;50.558;7.258;2022-10-30T05:40:33;12.20;99.90
23137;DHT22;11737;50.558;7.258;2022-10-30T05:43:02;12.10;99.90
23137;DHT22;11737;50.558;7.258;2022-10-30T05:45:30;12.00;99.90
23137;DHT22;11737;50.558;7.258;2022-10-30T05:48:03;12.00;99.90
23137;DHT22;11737;50.558;7.258;2022-10-30T05:50:32;11.90;99.90
23137;DHT22;11737;50.558;7.258;2022-10-30T05:53:02;11.90;99.90
23137;DHT22;11737;50.558;7.258;2022-10-30T05:55:31;11.80;99.90
23137;DHT22;11737;50.558;7.258;2022-10-30T05:58:00;11.90;99.90
23137;DHT22;11737;50.558;7.258;2022-10-30T06:00:29;11.80;99.90
23137;DHT22;11737;50.558;7.258;2022-10-30T06:03:06;11.90;99.90
23137;DHT22;11737;50.558;7.258;2022-10-30T06:05:35;11.90;99.90
23137;DHT22;11737;50.558;7.258;2022-10-30T06:08:04;12.00;99.90
23137;DHT22;11737;50.558;7.258;2022-10-30T06:10:33;12.00;99.90
23137;DHT22;11737;50.558;7.258;2022-10-30T06:13:04;11.90;99.90
23137;DHT22;11737;50.558;7.258;2022-10-30T06:15:32;11.90;99.90
23137;DHT22;11737;50.558;7.258;2022-10-30T06:18:00;11.80;99.90
23137;DHT22;11737;50.558;7.258;2022-10-30T06:20:29;11.80;99.90
23137;DHT22;11737;50.558;7.258;2022-10-30T06:23:03;11.80;99.90
23137;DHT22;11737;50.558;7.258;2022-10-30T06:25:28;11.90;99.90
23137;DHT22;11737;50.558;7.258;2022-10-30T06:27:56;11.90;99.90
23137;DHT22;11737;50.558;7.258;2022-10-30T06:30:25;12.00;99.90
23137;DHT22;11737;50.558;7.258;2022-10-30T06:33:03;11.90;99.90
23137;DHT22;11737;50.558;7.258;2022-10-30T06:35:31;11.80;99.90
23137;DHT22;11737;50.558;7.258;2022-10-30T06:37:59;11.80;99.90
23137;DHT22;11737;50.558;7.258;2022-10-30T06:40:27;11.80;99.90
23137;DHT22;11737;50.558;7.258;2022-10-30T06:42:55;11.80;99.90
23137;DHT22;11737;50.558;7.258;2022-10-30T06:45:24;11.90;99.90
23137;DHT22;11737;50.558;7.258;2022-10-30T06:47:52;12.00;99.90
23137;DHT22;11737;50.558;7.258;2022-10-30T06:50:20;12.20;99.90
23137;DHT22;11737;50.558;7.258;2022-10-30T06:52:49;12.30;99.90
23137;DHT22;11737;50.558;7.258;2022-10-30T06:55:17;12.50;99.90
23137;DHT22;11737;50.558;7.258;2022-10-30T06:57:45;12.50;99.90
23137;DHT22;11737;50.558;7.258;2022-10-30T07:00:12;12.60;99.90
23137;DHT22;11737;50.558;7.258;2022-10-30T07:02:40;12.70;99.90
23137;DHT22;11737;50.558;7.258;2022-10-30T07:05:08;12.80;99.90
23137;DHT22;11737;50.558;7.258;2022-10-30T07:07:35;12.90;99.90
23137;DHT22;11737;50.558;7.258;2022-10-30T07:10:03;13.00;99.90
23137;DHT22;11737;50.558;7.258;2022-10-30T07:12:30;13.10;99.90
23137;DHT22;11737;50.558;7.258;2022-10-30T07:14:58;13.20;99.90
23137;DHT22;11737;50.558;7.258;2022-10-30T07:17:25;13.30;99.90
23137;DHT22;11737;50.558;7.258;2022-10-30T07:19:53;13.30;99.90
23137;DHT22;11737;50.558;7.258;2022-10-30T07:22:20;13.40;99.90
23137;DHT22;11737;50.558;7.258;2022-10-30T07:24:48;13.50;99.90
23137;DHT22;11737;50.558;7.258;2022-10-30T07:27:15;13.60;99.90
23137;DHT22;11737;50.558;7.258;2022-10-30T07:29:43;13.60;99.90
23137;DHT22;11737;50.558;7.258;2022-10-30T07:32:13;13.70;99.90
23137;DHT22;11737;50.558;7.258;2022-10-30T07:34:40;13.80;99.90
23137;DHT22;11737;50.558;7.258;2022-10-30T07:37:08;13.90;99.90
23137;DHT22;11737;50.558;7.258;2022-10-30T07:39:36;14.00;99.90
23137;DHT22;11737;50.558;7.258;2022-10-30T07:42:03;14.00;99.90
23137;DHT22;11737;50.558;7.258;2022-10-30T07:44:31;14.10;99.90
23137;DHT22;11737;50.558;7.258;2022-10-30T07:46:58;14.20;99.90
23137;DHT22;11737;50.558;7.258;2022-10-30T07:49:26;14.20;99.90
23137;DHT22;11737;50.558;7.258;2022-10-30T07:51:53;14.30;99.90
23137;DHT22;11737;50.558;7.258;2022-10-30T07:54:21;14.40;99.90
23137;DHT22;11737;50.558;7.258;2022-10-30T07:56:48;14.50;99.90
23137;DHT22;11737;50.558;7.258;2022-10-30T07:59:16;14.50;99.90
23137;DHT22;11737;50.558;7.258;2022-10-30T08:01:43;14.60;99.90
23137;DHT22;11737;50.558;7.258;2022-10-30T08:04:11;14.70;99.90
23137;DHT22;11737;50.558;7.258;2022-10-30T08:06:39;14.80;99.90
23137;DHT22;11737;50.558;7.258;2022-10-30T08:09:07;14.90;99.90
23137;DHT22;11737;50.558;7.258;2022-10-30T08:11:35;14.90;99.90
23137;DHT22;11737;50.558;7.258;2022-10-30T08:14:02;15.00;99.90
23137;DHT22;11737;50.558;7.258;2022-10-30T08:16:30;15.10;99.90
23137;DHT22;11737;50.558;7.258;2022-10-30T08:18:57;15.20;99.90
23137;DHT22;11737;50.558;7.258;2022-10-30T08:21:25;15.30;99.90
23137;DHT22;11737;50.558;7.258;2022-10-30T08:23:52;15.40;99.90
23137;DHT22;11737;50.558;7.258;2022-10-30T08:26:20;15.50;99.90
23137;DHT22;11737;50.558;7.258;2022-10-30T08:28:47;15.60;99.90
23137;DHT22;11737;50.558;7.258;2022-10-30T08:31:15;15.60;99.90
23137;DHT22;11737;50.558;7.258;2022-10-30T08:33:42;15.70;99.90
23137;DHT22;11737;50.558;7.258;2022-10-30T08:36:10;15.80;99.90
23137;DHT22;11737;50.558;7.258;2022-10-30T08:38:37;15.90;99.90
23137;DHT22;11737;50.558;7.258;2022-10-30T08:41:05;16.10;99.90
23137;DHT22;11737;50.558;7.258;2022-10-30T08:43:32;16.20;99.90
23137;DHT22;11737;50.558;7.258;2022-10-30T08:46:00;16.30;99.90
23137;DHT22;11737;50.558;7.258;2022-10-30T08:48:28;16.40;99.90
23137;DHT22;11737;50.558;7.258;2022-10-30T08:50:59;16.50;99.90
23137;DHT22;11737;50.558;7.258;2022-10-30T08:53:27;16.60;99.90
23137;DHT22;11737;50.558;7.258;2022-10-30T08:55:55;16.70;99.90
23137;DHT22;11737;50.558;7.258;2022-10-30T08:58:22;16.80;99.90
23137;DHT22;11737;50.558;7.258;2022-10-30T09:00:50;16.90;99.90
23137;DHT22;11737;50.558;7.258;2022-10-30T09:03:17;17.00;99.90
23137;DHT22;11737;50.558;7.258;2022-10-30T09:05:45;17.10;99.90
23137;DHT22;11737;50.558;7.258;2022-10-30T09:08:12;17.20;99.90
23137;DHT22;11737;50.558;7.258;2022-10-30T09:10:40;17.30;99.90
23137;DHT22;11737;50.558;7.258;2022-10-30T09:13:08;17.30;99.90
23137;DHT22;11737;50.558;7.258;2022-10-30T09:15:36;17.40;99.90
23137;DHT22;11737;50.558;7.258;2022-10-30T09:18:04;17.40;99.90
23137;DHT22;11737;50.558;7.258;2022-10-30T09:20:32;17.50;99.90
23137;DHT22;11737;50.558;7.258;2022-10-30T09:22:59;17.70;99.90
23137;DHT22;11737;50.558;7.258;2022-10-30T09:25:26;17.70;99.90
23137;DHT22;11737;50.558;7.258;2022-10-30T09:27:54;17.80;99.90
23137;DHT22;11737;50.558;7.258;2022-10-30T09:30:22;17.80;99.90
23137;DHT22;11737;50.558;7.258;2022-10-30T09:32:56;17.80;99.90
23137;DHT22;11737;50.558;7.258;2022-10-30T09:35:25;17.90;99.90
23137;DHT22;11737;50.558;7.258;2022-10-30T09:37:53;17.90;99.90
23137;DHT22;11737;50.558;7.258;2022-10-30T09:40:24;18.00;99.90
23137;DHT22;11737;50.558;7.258;2022-10-30T09:42:51;18.00;99.90
23137;DHT22;11737;50.558;7.258;2022-10-30T09:46:33;18.00;99.90
23137;DHT22;11737;50.558;7.258;2022-10-30T09:56:26;18.20;99.90
23137;DHT22;11737;50.558;7.258;2022-10-30T10:04:41;18.30;99.90
23137;DHT22;11737;50.558;7.258;2022-10-30T10:07:29;18.40;99.90
23137;DHT22;11737;50.558;7.258;2022-10-30T10:10:03;18.40;99.90
23137;DHT22;11737;50.558;7.258;2022-10-30T10:12:37;18.40;99.90
23137;DHT22;11737;50.558;7.258;2022-10-30T10:15:09;18.50;99.90
23137;DHT22;11737;50.558;7.258;2022-10-30T10:17:36;18.60;99.90
23137;DHT22;11737;50.558;7.258;2022-10-30T10:20:12;18.70;99.90
23137;DHT22;11737;50.558;7.258;2022-10-30T10:22:42;18.80;99.90
23137;DHT22;11737;50.558;7.258;2022-10-30T10:25:14;18.80;99.90
23137;DHT22;11737;50.558;7.258;2022-10-30T10:33:55;19.10;99.90
23137;DHT22;11737;50.558;7.258;2022-10-30T10:36:27;19.20;99.90
23137;DHT22;11737;50.558;7.258;2022-10-30T10:39:06;19.20;99.90
23137;DHT22;11737;50.558;7.258;2022-10-30T10:47:17;19.40;99.90
23137;DHT22;11737;50.558;7.258;2022-10-30T10:52:22;19.50;99.90
23137;DHT22;11737;50.558;7.258;2022-10-30T10:54:54;19.60;99.90
23137;DHT22;11737;50.558;7.258;2022-10-30T10:57:39;19.60;99.90
23137;DHT22;11737;50.558;7.258;2022-10-30T11:00:19;19.70;99.90
23137;DHT22;11737;50.558;7.258;2022-10-30T11:03:16;19.70;99.90
23137;DHT22;11737;50.558;7.258;2022-10-30T11:05:55;19.70;99.90
23137;DHT22;11737;50.558;7.258;2022-10-30T11:08:28;19.80;99.90
23137;DHT22;11737;50.558;7.258;2022-10-30T11:11:01;19.90;99.90
23137;DHT22;11737;50.558;7.258;2022-10-30T11:13:40;20.00;99.90
23137;DHT22;11737;50.558;7.258;2022-10-30T11:19:03;20.10;99.90
23137;DHT22;11737;50.558;7.258;2022-10-30T11:21:24;20.20;99.90
23137;DHT22;11737;50.558;7.258;2022-10-30T11:23:53;20.20;99.90
23137;DHT22;11737;50.558;7.258;2022-10-30T11:26:24;20.30;99.90
23137;DHT22;11737;50.558;7.258;2022-10-30T11:29:13;20.30;99.90
23137;DHT22;11737;50.558;7.258;2022-10-30T11:31:42;20.20;99.90
23137;DHT22;11737;50.558;7.258;2022-10-30T11:36:51;20.10;99.90
23137;DHT22;11737;50.558;7.258;2022-10-30T11:39:27;20.10;99.90
23137;DHT22;11737;50.558;7.258;2022-10-30T11:42:10;20.10;99.90
23137;DHT22;11737;50.558;7.258;2022-10-30T11:44:42;20.10;99.90
23137;DHT22;11737;50.558;7.258;2022-10-30T11:47:09;20.10;99.90
23137;DHT22;11737;50.558;7.258;2022-10-30T11:49:56;20.20;99.90
23137;DHT22;11737;50.558;7.258;2022-10-30T11:52:25;20.30;99.90
23137;DHT22;11737;50.558;7.258;2022-10-30T11:55:17;20.40;99.90
23137;DHT22;11737;50.558;7.258;2022-10-30T11:57:44;20.50;99.90
23137;DHT22;11737;50.558;7.258;2022-10-30T12:02:48;20.60;99.90
23137;DHT22;11737;50.558;7.258;2022-10-30T12:10:43;20.80;99.90
23137;DHT22;11737;50.558;7.258;2022-10-30T12:13:16;20.90;99.90
23137;DHT22;11737;50.558;7.258;2022-10-30T12:15:43;21.00;99.90
23137;DHT22;11737;50.558;7.258;2022-10-30T12:18:24;21.00;99.90
23137;DHT22;11737;50.558;7.258;2022-10-30T12:20:55;21.00;99.90
23137;DHT22;11737;50.558;7.258;2022-10-30T12:23:25;21.00;99.90
23137;DHT22;11737;50.558;7.258;2022-10-30T12:26:06;21.10;99.90
23137;DHT22;11737;50.558;7.258;2022-10-30T12:28:31;21.20;99.90
23137;DHT22;11737;50.558;7.258;2022-10-30T12:31:08;21.10;99.90
23137;DHT22;11737;50.558;7.258;2022-10-30T12:34:05;21.20;99.90
23137;DHT22;11737;50.558;7.258;2022-10-30T12:36:34;21.20;99.90
23137;DHT22;11737;50.558;7.258;2022-10-30T12:42:01;21.10;99.90
23137;DHT22;11737;50.558;7.258;2022-10-30T12:44:42;21.10;99.90
23137;DHT22;11737;50.558;7.258;2022-10-30T12:47:32;21.10;99.90
23137;DHT22;11737;50.558;7.258;2022-10-30T12:49:59;21.00;99.90
23137;DHT22;11737;50.558;7.258;2022-10-30T13:00:19;21.00;99.90
23137;DHT22;11737;50.558;7.258;2022-10-30T13:03:19;21.00;99.90
23137;DHT22;11737;50.558;7.258;2022-10-30T13:06:12;21.00;99.90
23137;DHT22;11737;50.558;7.258;2022-10-30T13:11:47;21.10;99.90
23137;DHT22;11737;50.558;7.258;2022-10-30T13:14:19;21.10;99.90
23137;DHT22;11737;50.558;7.258;2022-10-30T13:16:47;21.10;99.90
23137;DHT22;11737;50.558;7.258;2022-10-30T13:19:16;21.10;99.90
23137;DHT22;11737;50.558;7.258;2022-10-30T13:30:05;21.00;99.90
23137;DHT22;11737;50.558;7.258;2022-10-30T13:35:37;21.00;99.90
23137;DHT22;11737;50.558;7.258;2022-10-30T13:43:59;21.00;99.90
23137;DHT22;11737;50.558;7.258;2022-10-30T13:52:13;21.10;99.90
23137;DHT22;11737;50.558;7.258;2022-10-30T13:57:42;21.20;99.90
23137;DHT22;11737;50.558;7.258;2022-10-30T14:08:47;21.00;99.90
23137;DHT22;11737;50.558;7.258;2022-10-30T14:11:13;21.00;99.90
23137;DHT22;11737;50.558;7.258;2022-10-30T14:13:55;21.00;99.90
23137;DHT22;11737;50.558;7.258;2022-10-30T14:19:10;20.90;99.90
23137;DHT22;11737;50.558;7.258;2022-10-30T14:21:43;20.90;99.90
23137;DHT22;11737;50.558;7.258;2022-10-30T14:39:58;20.50;99.90
23137;DHT22;11737;50.558;7.258;2022-10-30T14:42:50;20.50;99.90
23137;DHT22;11737;50.558;7.258;2022-10-30T14:45:49;20.40;99.90
23137;DHT22;11737;50.558;7.258;2022-10-30T14:48:44;20.30;99.90
23137;DHT22;11737;50.558;7.258;2022-10-30T14:51:18;20.20;99.90
23137;DHT22;11737;50.558;7.258;2022-10-30T14:56:55;20.10;99.90
23137;DHT22;11737;50.558;7.258;2022-10-30T15:02:00;20.00;99.90
23137;DHT22;11737;50.558;7.258;2022-10-30T15:07:36;19.80;99.90
23137;DHT22;11737;50.558;7.258;2022-10-30T15:12:52;19.60;99.90
23137;DHT22;11737;50.558;7.258;2022-10-30T15:15:18;19.60;99.90
23137;DHT22;11737;50.558;7.258;2022-10-30T15:17:47;19.50;99.90
23137;DHT22;11737;50.558;7.258;2022-10-30T15:20:31;19.50;99.90
23137;DHT22;11737;50.558;7.258;2022-10-30T15:23:40;19.40;99.90
23137;DHT22;11737;50.558;7.258;2022-10-30T15:25:38;19.40;99.90
23137;DHT22;11737;50.558;7.258;2022-10-30T15:28:11;19.30;99.90
23137;DHT22;11737;50.558;7.258;2022-10-30T15:30:35;19.20;99.90
23137;DHT22;11737;50.558;7.258;2022-10-30T15:33:02;19.20;99.90
23137;DHT22;11737;50.558;7.258;2022-10-30T15:35:30;19.10;99.90
23137;DHT22;11737;50.558;7.258;2022-10-30T15:40:35;19.00;99.90
23137;DHT22;11737;50.558;7.258;2022-10-30T15:43:01;18.90;99.90
23137;DHT22;11737;50.558;7.258;2022-10-30T15:45:39;18.90;99.90
23137;DHT22;11737;50.558;7.258;2022-10-30T15:48:21;18.80;99.90
23137;DHT22;11737;50.558;7.258;2022-10-30T15:51:05;18.70;99.90
23137;DHT22;11737;50.558;7.258;2022-10-30T15:53:58;18.60;99.90
23137;DHT22;11737;50.558;7.258;2022-10-30T15:56:37;18.50;99.90
23137;DHT22;11737;50.558;7.258;2022-10-30T15:59:29;18.40;99.90
23137;DHT22;11737;50.558;7.258;2022-10-30T16:01:59;18.40;99.90
23137;DHT22;11737;50.558;7.258;2022-10-30T16:04:31;18.30;99.90
23137;DHT22;11737;50.558;7.258;2022-10-30T16:07:25;18.20;99.90
23137;DHT22;11737;50.558;7.258;2022-10-30T16:09:59;18.20;99.90
23137;DHT22;11737;50.558;7.258;2022-10-30T16:12:31;18.10;99.90
23137;DHT22;11737;50.558;7.258;2022-10-30T16:15:07;18.00;99.90
23137;DHT22;11737;50.558;7.258;2022-10-30T16:17:35;17.90;99.90
23137;DHT22;11737;50.558;7.258;2022-10-30T16:20:03;17.90;99.90
23137;DHT22;11737;50.558;7.258;2022-10-30T16:22:35;17.80;99.90
23137;DHT22;11737;50.558;7.258;2022-10-30T16:25:09;17.70;99.90
23137;DHT22;11737;50.558;7.258;2022-10-30T16:27:43;17.60;99.90
23137;DHT22;11737;50.558;7.258;2022-10-30T16:30:13;17.60;99.90
23137;DHT22;11737;50.558;7.258;2022-10-30T16:32:49;17.50;99.90
23137;DHT22;11737;50.558;7.258;2022-10-30T16:35:12;17.50;99.90
23137;DHT22;11737;50.558;7.258;2022-10-30T16:37:40;17.40;99.90
23137;DHT22;11737;50.558;7.258;2022-10-30T16:40:15;17.30;99.90
23137;DHT22;11737;50.558;7.258;2022-10-30T16:42:47;17.20;99.90
23137;DHT22;11737;50.558;7.258;2022-10-30T16:47:58;17.20;99.90
23137;DHT22;11737;50.558;7.258;2022-10-30T16:50:30;17.10;99.90
23137;DHT22;11737;50.558;7.258;2022-10-30T16:53:10;17.10;99.90
23137;DHT22;11737;50.558;7.258;2022-10-30T16:55:35;17.10;99.90
23137;DHT22;11737;50.558;7.258;2022-10-30T16:58:04;17.10;99.90
23137;DHT22;11737;50.558;7.258;2022-10-30T17:00:32;17.00;99.90
23137;DHT22;11737;50.558;7.258;2022-10-30T17:03:05;16.90;99.90
23137;DHT22;11737;50.558;7.258;2022-10-30T17:05:32;16.80;99.90
23137;DHT22;11737;50.558;7.258;2022-10-30T17:10:59;16.60;99.90
23137;DHT22;11737;50.558;7.258;2022-10-30T17:14:03;16.50;99.90
23137;DHT22;11737;50.558;7.258;2022-10-30T17:16:26;16.40;99.90
23137;DHT22;11737;50.558;7.258;2022-10-30T17:18:56;16.40;99.90
23137;DHT22;11737;50.558;7.258;2022-10-30T17:21:30;16.40;99.90
23137;DHT22;11737;50.558;7.258;2022-10-30T17:23:59;16.40;99.90
23137;DHT22;11737;50.558;7.258;2022-10-30T17:26:28;16.20;99.90
23137;DHT22;11737;50.558;7.258;2022-10-30T17:28:57;16.20;99.90
23137;DHT22;11737;50.558;7.258;2022-10-30T17:34:16;16.10;99.90
23137;DHT22;11737;50.558;7.258;2022-10-30T17:36:45;16.00;99.90
23137;DHT22;11737;50.558;7.258;2022-10-30T17:39:13;15.90;99.90
23137;DHT22;11737;50.558;7.258;2022-10-30T17:41:42;15.80;99.90
23137;DHT22;11737;50.558;7.258;2022-10-30T17:44:16;15.70;99.90
23137;DHT22;11737;50.558;7.258;2022-10-30T17:46:43;15.50;99.90
23137;DHT22;11737;50.558;7.258;2022-10-30T17:49:21;15.40;99.90
23137;DHT22;11737;50.558;7.258;2022-10-30T17:51:47;15.30;99.90
23137;DHT22;11737;50.558;7.258;2022-10-30T17:54:14;15.30;99.90
23137;DHT22;11737;50.558;7.258;2022-10-30T17:56:42;15.30;99.90
23137;DHT22;11737;50.558;7.258;2022-10-30T17:59:10;15.30;99.90
23137;DHT22;11737;50.558;7.258;2022-10-30T18:01:37;15.20;99.90
23137;DHT22;11737;50.558;7.258;2022-10-30T18:04:13;15.20;99.90
23137;DHT22;11737;50.558;7.258;2022-10-30T18:06:42;15.20;99.90
23137;DHT22;11737;50.558;7.258;2022-10-30T18:09:10;15.10;99.90
23137;DHT22;11737;50.558;7.258;2022-10-30T18:11:38;15.10;99.90
23137;DHT22;11737;50.558;7.258;2022-10-30T18:14:05;15.10;99.90
23137;DHT22;11737;50.558;7.258;2022-10-30T18:16:33;15.10;99.90
23137;DHT22;11737;50.558;7.258;2022-10-30T18:19:00;15.00;99.90
23137;DHT22;11737;50.558;7.258;2022-10-30T18:21:28;14.90;99.90
23137;DHT22;11737;50.558;7.258;2022-10-30T18:23:56;14.90;99.90
23137;DHT22;11737;50.558;7.258;2022-10-30T18:26:25;14.80;99.90
23137;DHT22;11737;50.558;7.258;2022-10-30T18:28:53;14.70;99.90